CPH weather

Copenhagen Kastrup Airport
Copenhagen, Capital Region, Denmark

Public forecast

Using degrees Celsius for public forecast. Weather courtesy of forecast.io.

METAR (pilot weather report)

Retrieved 2017/03/24 21:20 UTC (32 minutes ago):

EKCH 242120Z 29006KT CAVOK 06/M01 Q1031 NOSIG

TAF (pilot weather forecast)

Forecast is more than 6 hours old.

Retrieved 2017/03/24 12:00 UTC (10 hours ago):

TAF EKCH 241107Z 2412/2512 27010KT CAVOK BECMG 2502/2504 6000 BKN010 TEMPO 2504/2506 2000 BR BKN004 BECMG 2507/2509 CAVOK